sensor_id;sensor_type;location;lat;lon;timestamp;pressure;altitude;pressure_sealevel;temperature;humidity
64025;BME280;50266;57.446;26.936;2023-06-01T00:00:14;99048.03;;;7.26;100.0
64025;BME280;50266;57.446;26.936;2023-06-01T00:01:14;99054.56;;;7.28;100.0
64025;BME280;50266;57.446;26.936;2023-06-01T00:02:14;99048.48;;;7.29;100.0
64025;BME280;50266;57.446;26.936;2023-06-01T00:03:14;99050.49;;;7.31;100.0
64025;BME280;50266;57.446;26.936;2023-06-01T00:04:14;99053.07;;;7.33;100.0
64025;BME280;50266;57.446;26.936;2023-06-01T00:05:14;99044.58;;;7.29;100.0
64025;BME280;50266;57.446;26.936;2023-06-01T00:06:14;99045.3;;;7.27;100.0
64025;BME280;50266;57.446;26.936;2023-06-01T00:07:14;99052.47;;;7.31;100.0
64025;BME280;50266;57.446;26.936;2023-06-01T00:08:14;99048.66;;;7.25;100.0
64025;BME280;50266;57.446;26.936;2023-06-01T00:09:14;99048.94;;;7.21;100.0
64025;BME280;50266;57.446;26.936;2023-06-01T00:10:14;99051.14;;;7.17;100.0
64025;BME280;50266;57.446;26.936;2023-06-01T00:11:14;99053.09;;;7.15;100.0
64025;BME280;50266;57.446;26.936;2023-06-01T00:12:15;99051.42;;;7.07;100.0
64025;BME280;50266;57.446;26.936;2023-06-01T00:13:15;99049.13;;;7.06;100.0
64025;BME280;50266;57.446;26.936;2023-06-01T00:14:15;99051.41;;;7.06;100.0
64025;BME280;50266;57.446;26.936;2023-06-01T00:15:15;99053.31;;;7.0;100.0
64025;BME280;50266;57.446;26.936;2023-06-01T00:16:15;99048.86;;;7.02;100.0
64025;BME280;50266;57.446;26.936;2023-06-01T00:17:15;99052.53;;;6.98;100.0
64025;BME280;50266;57.446;26.936;2023-06-01T00:18:15;99056.16;;;6.96;100.0
64025;BME280;50266;57.446;26.936;2023-06-01T00:19:15;99060.77;;;6.92;100.0
64025;BME280;50266;57.446;26.936;2023-06-01T00:20:15;99056.29;;;6.89;100.0
64025;BME280;50266;57.446;26.936;2023-06-01T00:21:15;99059.99;;;6.88;100.0
64025;BME280;50266;57.446;26.936;2023-06-01T00:22:15;99059.47;;;6.86;100.0
64025;BME280;50266;57.446;26.936;2023-06-01T00:23:15;99057.77;;;6.87;100.0
64025;BME280;50266;57.446;26.936;2023-06-01T00:24:15;99058.86;;;6.82;100.0
64025;BME280;50266;57.446;26.936;2023-06-01T00:25:15;99054.56;;;6.75;100.0
64025;BME280;50266;57.446;26.936;2023-06-01T00:26:15;99056.91;;;6.84;100.0
64025;BME280;50266;57.446;26.936;2023-06-01T00:27:15;99054.14;;;6.8;100.0
64025;BME280;50266;57.446;26.936;2023-06-01T00:28:15;99051.23;;;6.8;100.0
64025;BME280;50266;57.446;26.936;2023-06-01T00:29:15;99055.29;;;6.85;100.0
64025;BME280;50266;57.446;26.936;2023-06-01T00:30:15;99052.66;;;6.82;100.0
64025;BME280;50266;57.446;26.936;2023-06-01T00:31:15;99054.36;;;6.73;100.0
64025;BME280;50266;57.446;26.936;2023-06-01T00:32:15;99048.67;;;6.71;100.0
64025;BME280;50266;57.446;26.936;2023-06-01T00:33:15;99051.25;;;6.69;100.0
64025;BME280;50266;57.446;26.936;2023-06-01T00:34:15;99049.55;;;6.72;100.0
64025;BME280;50266;57.446;26.936;2023-06-01T00:35:15;99049.5;;;6.73;100.0
64025;BME280;50266;57.446;26.936;2023-06-01T00:36:15;99054.61;;;6.75;100.0
64025;BME280;50266;57.446;26.936;2023-06-01T00:37:15;99045.8;;;6.72;100.0
64025;BME280;50266;57.446;26.936;2023-06-01T00:38:15;99049.25;;;6.75;100.0
64025;BME280;50266;57.446;26.936;2023-06-01T00:39:15;99052.34;;;6.74;100.0
64025;BME280;50266;57.446;26.936;2023-06-01T00:40:15;99050.25;;;6.7;100.0
64025;BME280;50266;57.446;26.936;2023-06-01T00:41:15;99051.2;;;6.72;100.0
64025;BME280;50266;57.446;26.936;2023-06-01T00:42:15;99044.57;;;6.77;100.0
64025;BME280;50266;57.446;26.936;2023-06-01T00:43:15;99047.3;;;6.66;100.0
64025;BME280;50266;57.446;26.936;2023-06-01T00:44:15;99048.18;;;6.67;100.0
64025;BME280;50266;57.446;26.936;2023-06-01T00:45:15;99044.73;;;6.65;100.0
64025;BME280;50266;57.446;26.936;2023-06-01T00:46:15;99041.61;;;6.69;100.0
64025;BME280;50266;57.446;26.936;2023-06-01T00:47:15;99044.18;;;6.69;100.0
64025;BME280;50266;57.446;26.936;2023-06-01T00:48:16;99044.55;;;6.64;100.0
64025;BME280;50266;57.446;26.936;2023-06-01T00:49:15;99042.94;;;6.59;100.0
64025;BME280;50266;57.446;26.936;2023-06-01T00:50:15;99042.38;;;6.56;100.0
64025;BME280;50266;57.446;26.936;2023-06-01T00:51:15;99041.2;;;6.55;100.0
64025;BME280;50266;57.446;26.936;2023-06-01T00:52:15;99041.16;;;6.56;100.0
64025;BME280;50266;57.446;26.936;2023-06-01T00:53:16;99041.69;;;6.54;100.0
64025;BME280;50266;57.446;26.936;2023-06-01T00:54:15;99041.36;;;6.51;100.0
64025;BME280;50266;57.446;26.936;2023-06-01T00:55:15;99044.84;;;6.46;100.0
64025;BME280;50266;57.446;26.936;2023-06-01T00:56:16;99044.05;;;6.51;100.0
64025;BME280;50266;57.446;26.936;2023-06-01T00:57:16;99040.41;;;6.48;100.0
64025;BME280;50266;57.446;26.936;2023-06-01T00:58:15;99042.16;;;6.6;100.0
64025;BME280;50266;57.446;26.936;2023-06-01T00:59:15;99039.72;;;6.62;100.0
64025;BME280;50266;57.446;26.936;2023-06-01T01:00:16;99041.77;;;6.67;100.0
64025;BME280;50266;57.446;26.936;2023-06-01T01:01:15;99038.62;;;6.65;100.0
64025;BME280;50266;57.446;26.936;2023-06-01T01:02:15;99037.95;;;6.57;100.0
64025;BME280;50266;57.446;26.936;2023-06-01T01:03:15;99038.25;;;6.51;100.0
64025;BME280;50266;57.446;26.936;2023-06-01T01:04:15;99035.33;;;6.47;100.0
64025;BME280;50266;57.446;26.936;2023-06-01T01:05:15;99038.38;;;6.44;100.0
64025;BME280;50266;57.446;26.936;2023-06-01T01:07:29;99038.5;;;6.35;100.0
64025;BME280;50266;57.446;26.936;2023-06-01T01:10:32;99045.51;;;6.33;100.0
64025;BME280;50266;57.446;26.936;2023-06-01T01:11:24;99048.0;;;6.26;100.0
64025;BME280;50266;57.446;26.936;2023-06-01T01:13:34;99047.3;;;6.16;100.0
64025;BME280;50266;57.446;26.936;2023-06-01T01:14:43;99052.83;;;6.14;100.0
64025;BME280;50266;57.446;26.936;2023-06-01T01:16:35;99050.38;;;6.24;100.0
64025;BME280;50266;57.446;26.936;2023-06-01T01:17:36;99054.02;;;6.08;100.0
64025;BME280;50266;57.446;26.936;2023-06-01T01:20:41;99055.48;;;5.95;100.0
64025;BME280;50266;57.446;26.936;2023-06-01T01:21:41;99051.26;;;5.92;100.0
64025;BME280;50266;57.446;26.936;2023-06-01T01:22:43;99058.44;;;5.89;100.0
64025;BME280;50266;57.446;26.936;2023-06-01T01:26:12;99059.38;;;5.84;100.0
64025;BME280;50266;57.446;26.936;2023-06-01T01:27:00;99055.53;;;5.83;100.0
64025;BME280;50266;57.446;26.936;2023-06-01T01:29:00;99054.06;;;5.89;100.0
64025;BME280;50266;57.446;26.936;2023-06-01T01:29:57;99054.3;;;5.87;100.0
64025;BME280;50266;57.446;26.936;2023-06-01T01:30:56;99052.68;;;5.88;100.0
64025;BME280;50266;57.446;26.936;2023-06-01T01:31:57;99052.8;;;5.86;100.0
64025;BME280;50266;57.446;26.936;2023-06-01T01:32:57;99051.3;;;5.91;100.0
64025;BME280;50266;57.446;26.936;2023-06-01T01:33:57;99056.85;;;5.96;100.0
64025;BME280;50266;57.446;26.936;2023-06-01T01:34:57;99056.06;;;5.98;100.0
64025;BME280;50266;57.446;26.936;2023-06-01T01:35:57;99053.23;;;6.01;100.0
64025;BME280;50266;57.446;26.936;2023-06-01T01:36:57;99053.5;;;6.01;100.0
64025;BME280;50266;57.446;26.936;2023-06-01T01:37:57;99056.73;;;6.03;100.0
64025;BME280;50266;57.446;26.936;2023-06-01T01:38:57;99055.46;;;6.03;100.0
64025;BME280;50266;57.446;26.936;2023-06-01T01:39:57;99052.62;;;6.11;100.0
64025;BME280;50266;57.446;26.936;2023-06-01T01:40:57;99055.94;;;6.07;100.0
64025;BME280;50266;57.446;26.936;2023-06-01T01:41:57;99058.81;;;6.07;100.0
64025;BME280;50266;57.446;26.936;2023-06-01T01:42:57;99062.62;;;6.07;100.0
64025;BME280;50266;57.446;26.936;2023-06-01T01:43:57;99060.34;;;6.02;100.0
64025;BME280;50266;57.446;26.936;2023-06-01T01:44:57;99060.42;;;6.04;100.0
64025;BME280;50266;57.446;26.936;2023-06-01T01:45:59;99063.75;;;5.98;100.0
64025;BME280;50266;57.446;26.936;2023-06-01T01:46:57;99064.84;;;5.97;100.0
64025;BME280;50266;57.446;26.936;2023-06-01T01:49:19;99061.39;;;6.0;100.0
64025;BME280;50266;57.446;26.936;2023-06-01T01:50:05;99071.96;;;6.04;100.0
64025;BME280;50266;57.446;26.936;2023-06-01T01:51:03;99071.05;;;6.03;100.0
64025;BME280;50266;57.446;26.936;2023-06-01T01:52:21;99073.55;;;6.01;100.0
64025;BME280;50266;57.446;26.936;2023-06-01T01:53:04;99073.67;;;6.02;100.0
64025;BME280;50266;57.446;26.936;2023-06-01T01:54:04;99072.03;;;6.04;100.0
64025;BME280;50266;57.446;26.936;2023-06-01T01:55:07;99076.55;;;5.97;100.0
64025;BME280;50266;57.446;26.936;2023-06-01T01:56:04;99074.2;;;5.95;100.0
64025;BME280;50266;57.446;26.936;2023-06-01T01:57:04;99070.28;;;5.94;100.0
64025;BME280;50266;57.446;26.936;2023-06-01T01:58:04;99067.59;;;5.96;100.0
64025;BME280;50266;57.446;26.936;2023-06-01T01:59:04;99075.53;;;5.97;100.0
64025;BME280;50266;57.446;26.936;2023-06-01T02:00:05;99072.83;;;6.0;100.0
64025;BME280;50266;57.446;26.936;2023-06-01T02:01:04;99068.73;;;6.04;100.0
64025;BME280;50266;57.446;26.936;2023-06-01T02:02:04;99073.69;;;6.03;100.0
64025;BME280;50266;57.446;26.936;2023-06-01T02:03:04;99074.03;;;6.01;100.0
64025;BME280;50266;57.446;26.936;2023-06-01T02:04:08;99071.91;;;6.0;100.0
64025;BME280;50266;57.446;26.936;2023-06-01T02:05:08;99073.41;;;5.99;100.0
64025;BME280;50266;57.446;26.936;2023-06-01T02:06:08;99076.74;;;5.98;100.0
64025;BME280;50266;57.446;26.936;2023-06-01T02:07:09;99077.73;;;5.95;100.0
64025;BME280;50266;57.446;26.936;2023-06-01T02:08:08;99077.61;;;5.94;100.0
64025;BME280;50266;57.446;26.936;2023-06-01T02:09:08;99080.89;;;5.98;100.0
64025;BME280;50266;57.446;26.936;2023-06-01T02:10:09;99083.03;;;5.98;100.0
64025;BME280;50266;57.446;26.936;2023-06-01T02:11:08;99078.32;;;5.95;100.0
64025;BME280;50266;57.446;26.936;2023-06-01T02:12:09;99077.29;;;5.93;100.0
64025;BME280;50266;57.446;26.936;2023-06-01T02:13:09;99082.7;;;5.92;100.0
64025;BME280;50266;57.446;26.936;2023-06-01T02:14:09;99081.86;;;5.95;100.0
64025;BME280;50266;57.446;26.936;2023-06-01T02:15:09;99080.55;;;5.94;100.0
64025;BME280;50266;57.446;26.936;2023-06-01T02:16:09;99082.09;;;5.95;100.0
64025;BME280;50266;57.446;26.936;2023-06-01T02:17:09;99079.56;;;6.0;100.0
64025;BME280;50266;57.446;26.936;2023-06-01T02:18:09;99085.88;;;6.04;100.0
64025;BME280;50266;57.446;26.936;2023-06-01T02:19:09;99085.02;;;6.05;100.0
64025;BME280;50266;57.446;26.936;2023-06-01T02:20:09;99087.22;;;6.08;100.0
64025;BME280;50266;57.446;26.936;2023-06-01T02:21:09;99087.62;;;6.11;100.0
64025;BME280;50266;57.446;26.936;2023-06-01T02:22:09;99087.55;;;6.12;100.0
64025;BME280;50266;57.446;26.936;2023-06-01T02:23:09;99088.08;;;6.11;100.0
64025;BME280;50266;57.446;26.936;2023-06-01T02:24:09;99091.47;;;6.12;100.0
64025;BME280;50266;57.446;26.936;2023-06-01T02:25:09;99089.09;;;6.12;100.0
64025;BME280;50266;57.446;26.936;2023-06-01T02:26:09;99087.91;;;6.14;100.0
64025;BME280;50266;57.446;26.936;2023-06-01T02:27:09;99092.77;;;6.11;100.0
64025;BME280;50266;57.446;26.936;2023-06-01T02:28:09;99090.2;;;6.1;100.0
64025;BME280;50266;57.446;26.936;2023-06-01T02:29:09;99099.41;;;6.12;100.0
64025;BME280;50266;57.446;26.936;2023-06-01T02:30:09;99095.75;;;6.1;100.0
64025;BME280;50266;57.446;26.936;2023-06-01T02:31:09;99041.28;;;6.06;100.0
64025;BME280;50266;57.446;26.936;2023-06-01T02:32:09;99039.14;;;6.1;100.0
64025;BME280;50266;57.446;26.936;2023-06-01T02:33:09;99039.23;;;6.11;100.0
64025;BME280;50266;57.446;26.936;2023-06-01T02:34:09;99038.98;;;6.11;100.0
64025;BME280;50266;57.446;26.936;2023-06-01T02:35:09;99038.09;;;6.14;100.0
64025;BME280;50266;57.446;26.936;2023-06-01T02:36:09;99042.59;;;6.15;100.0
64025;BME280;50266;57.446;26.936;2023-06-01T02:37:09;99037.34;;;6.15;100.0
64025;BME280;50266;57.446;26.936;2023-06-01T02:38:09;99040.02;;;6.13;100.0
64025;BME280;50266;57.446;26.936;2023-06-01T02:39:09;99043.2;;;6.14;100.0
64025;BME280;50266;57.446;26.936;2023-06-01T02:40:09;99044.08;;;6.15;100.0
64025;BME280;50266;57.446;26.936;2023-06-01T02:41:09;99049.47;;;6.19;100.0
64025;BME280;50266;57.446;26.936;2023-06-01T02:42:09;99051.27;;;6.18;100.0
64025;BME280;50266;57.446;26.936;2023-06-01T02:43:09;99047.4;;;6.15;100.0
64025;BME280;50266;57.446;26.936;2023-06-01T02:44:09;99048.16;;;6.16;100.0
64025;BME280;50266;57.446;26.936;2023-06-01T02:45:09;99047.09;;;6.14;100.0
64025;BME280;50266;57.446;26.936;2023-06-01T02:46:09;99047.66;;;6.16;100.0
64025;BME280;50266;57.446;26.936;2023-06-01T02:47:09;99049.7;;;6.22;100.0
64025;BME280;50266;57.446;26.936;2023-06-01T02:48:09;99043.83;;;6.25;100.0
64025;BME280;50266;57.446;26.936;2023-06-01T02:49:09;99052.29;;;6.29;100.0
64025;BME280;50266;57.446;26.936;2023-06-01T02:50:09;99054.44;;;6.29;100.0
64025;BME280;50266;57.446;26.936;2023-06-01T02:51:09;99054.22;;;6.28;100.0
64025;BME280;50266;57.446;26.936;2023-06-01T02:52:09;99057.31;;;6.31;100.0
64025;BME280;50266;57.446;26.936;2023-06-01T02:53:09;99058.71;;;6.38;100.0
64025;BME280;50266;57.446;26.936;2023-06-01T02:54:09;99055.44;;;6.42;100.0
64025;BME280;50266;57.446;26.936;2023-06-01T02:55:09;99059.5;;;6.41;100.0
64025;BME280;50266;57.446;26.936;2023-06-01T02:56:09;99054.58;;;6.44;100.0
64025;BME280;50266;57.446;26.936;2023-06-01T02:57:09;99054.05;;;6.44;100.0
64025;BME280;50266;57.446;26.936;2023-06-01T02:58:09;99059.03;;;6.46;100.0
64025;BME280;50266;57.446;26.936;2023-06-01T02:59:09;99058.92;;;6.5;100.0
64025;BME280;50266;57.446;26.936;2023-06-01T03:00:10;99057.98;;;6.51;100.0
64025;BME280;50266;57.446;26.936;2023-06-01T03:01:09;99057.89;;;6.48;100.0
64025;BME280;50266;57.446;26.936;2023-06-01T03:02:09;99049.13;;;6.54;100.0
64025;BME280;50266;57.446;26.936;2023-06-01T03:03:09;99055.0;;;6.53;100.0
64025;BME280;50266;57.446;26.936;2023-06-01T03:04:09;99051.84;;;6.54;100.0
64025;BME280;50266;57.446;26.936;2023-06-01T03:05:09;99047.42;;;6.54;100.0
64025;BME280;50266;57.446;26.936;2023-06-01T03:06:09;99054.36;;;6.56;100.0
64025;BME280;50266;57.446;26.936;2023-06-01T03:07:09;99050.5;;;6.53;100.0
64025;BME280;50266;57.446;26.936;2023-06-01T03:08:09;99052.82;;;6.6;100.0
64025;BME280;50266;57.446;26.936;2023-06-01T03:09:09;99054.98;;;6.66;100.0
64025;BME280;50266;57.446;26.936;2023-06-01T03:10:09;99056.66;;;6.66;100.0
64025;BME280;50266;57.446;26.936;2023-06-01T03:11:09;99056.8;;;6.66;100.0
64025;BME280;50266;57.446;26.936;2023-06-01T03:12:10;99053.17;;;6.66;100.0
64025;BME280;50266;57.446;26.936;2023-06-01T03:13:10;99058.24;;;6.64;100.0
64025;BME280;50266;57.446;26.936;2023-06-01T03:14:09;99053.95;;;6.7;100.0
64025;BME280;50266;57.446;26.936;2023-06-01T03:15:10;99058.5;;;6.7;100.0
64025;BME280;50266;57.446;26.936;2023-06-01T03:16:10;99057.86;;;6.7;100.0
64025;BME280;50266;57.446;26.936;2023-06-01T03:17:10;99059.0;;;6.71;100.0
64025;BME280;50266;57.446;26.936;2023-06-01T03:18:10;99059.02;;;6.78;100.0
64025;BME280;50266;57.446;26.936;2023-06-01T03:19:10;99057.83;;;6.78;100.0
64025;BME280;50266;57.446;26.936;2023-06-01T03:20:10;99058.93;;;6.77;100.0
64025;BME280;50266;57.446;26.936;2023-06-01T03:21:10;99063.01;;;6.81;100.0
64025;BME280;50266;57.446;26.936;2023-06-01T03:22:10;99059.33;;;6.81;100.0
64025;BME280;50266;57.446;26.936;2023-06-01T03:23:10;99059.03;;;6.84;100.0
64025;BME280;50266;57.446;26.936;2023-06-01T03:24:10;99060.67;;;6.82;100.0
64025;BME280;50266;57.446;26.936;2023-06-01T03:25:10;99064.78;;;6.88;100.0
64025;BME280;50266;57.446;26.936;2023-06-01T03:26:10;99063.33;;;6.93;100.0
64025;BME280;50266;57.446;26.936;2023-06-01T03:27:10;99059.47;;;6.88;100.0
64025;BME280;50266;57.446;26.936;2023-06-01T03:28:10;99065.42;;;6.9;100.0
64025;BME280;50266;57.446;26.936;2023-06-01T03:29:10;99062.86;;;6.86;100.0
64025;BME280;50266;57.446;26.936;2023-06-01T03:30:10;99061.91;;;6.89;100.0
64025;BME280;50266;57.446;26.936;2023-06-01T03:31:10;99063.11;;;6.92;100.0
64025;BME280;50266;57.446;26.936;2023-06-01T03:32:10;99059.55;;;6.98;100.0
64025;BME280;50266;57.446;26.936;2023-06-01T03:33:10;99061.28;;;6.98;100.0
64025;BME280;50266;57.446;26.936;2023-06-01T03:34:10;99064.0;;;7.01;100.0
64025;BME280;50266;57.446;26.936;2023-06-01T03:35:11;99056.42;;;7.07;100.0
64025;BME280;50266;57.446;26.936;2023-06-01T03:36:10;99053.38;;;7.07;100.0
64025;BME280;50266;57.446;26.936;2023-06-01T03:37:10;99053.76;;;7.08;100.0
64025;BME280;50266;57.446;26.936;2023-06-01T03:38:10;99059.73;;;7.08;100.0
64025;BME280;50266;57.446;26.936;2023-06-01T03:39:10;99061.3;;;7.05;100.0
64025;BME280;50266;57.446;26.936;2023-06-01T03:40:11;99063.16;;;7.11;100.0
64025;BME280;50266;57.446;26.936;2023-06-01T03:41:10;99060.14;;;7.17;100.0
64025;BME280;50266;57.446;26.936;2023-06-01T03:42:10;99065.19;;;7.19;100.0
64025;BME280;50266;57.446;26.936;2023-06-01T03:43:10;99066.94;;;7.2;100.0
64025;BME280;50266;57.446;26.936;2023-06-01T03:44:11;99067.98;;;7.22;100.0
64025;BME280;50266;57.446;26.936;2023-06-01T03:45:11;99063.98;;;7.26;100.0
64025;BME280;50266;57.446;26.936;2023-06-01T03:46:11;99061.48;;;7.27;100.0
64025;BME280;50266;57.446;26.936;2023-06-01T03:47:11;99061.87;;;7.31;100.0
64025;BME280;50266;57.446;26.936;2023-06-01T03:48:11;99066.77;;;7.3;100.0
64025;BME280;50266;57.446;26.936;2023-06-01T03:49:11;99060.91;;;7.35;100.0
64025;BME280;50266;57.446;26.936;2023-06-01T03:50:11;99064.44;;;7.33;100.0
64025;BME280;50266;57.446;26.936;2023-06-01T03:51:11;99062.62;;;7.39;100.0
64025;BME280;50266;57.446;26.936;2023-06-01T03:52:11;99061.31;;;7.45;100.0
64025;BME280;50266;57.446;26.936;2023-06-01T03:53:11;99063.93;;;7.5;100.0
64025;BME280;50266;57.446;26.936;2023-06-01T03:54:11;99054.7;;;7.52;100.0
64025;BME280;50266;57.446;26.936;2023-06-01T03:55:11;99066.2;;;7.54;100.0
64025;BME280;50266;57.446;26.936;2023-06-01T03:56:11;99067.72;;;7.58;100.0
64025;BME280;50266;57.446;26.936;2023-06-01T03:57:11;99065.91;;;7.58;100.0
64025;BME280;50266;57.446;26.936;2023-06-01T03:58:11;99072.53;;;7.65;100.0
64025;BME280;50266;57.446;26.936;2023-06-01T03:59:11;99073.45;;;7.7;100.0
64025;BME280;50266;57.446;26.936;2023-06-01T04:00:11;99070.48;;;7.77;100.0
64025;BME280;50266;57.446;26.936;2023-06-01T04:01:11;99069.25;;;7.75;100.0
64025;BME280;50266;57.446;26.936;2023-06-01T04:02:11;99070.72;;;7.76;100.0
64025;BME280;50266;57.446;26.936;2023-06-01T04:03:11;99065.45;;;7.75;100.0
64025;BME280;50266;57.446;26.936;2023-06-01T04:04:11;99063.16;;;7.81;100.0
64025;BME280;50266;57.446;26.936;2023-06-01T04:05:11;99068.5;;;7.86;100.0
64025;BME280;50266;57.446;26.936;2023-06-01T04:06:11;99066.42;;;7.85;100.0
64025;BME280;50266;57.446;26.936;2023-06-01T04:07:14;99061.7;;;7.85;100.0
64025;BME280;50266;57.446;26.936;2023-06-01T04:08:11;99061.04;;;7.89;100.0
64025;BME280;50266;57.446;26.936;2023-06-01T04:09:11;99056.69;;;7.9;100.0
64025;BME280;50266;57.446;26.936;2023-06-01T04:10:11;99056.4;;;7.91;100.0
64025;BME280;50266;57.446;26.936;2023-06-01T04:11:11;99061.64;;;7.95;100.0
64025;BME280;50266;57.446;26.936;2023-06-01T04:12:12;99057.87;;;8.01;100.0
64025;BME280;50266;57.446;26.936;2023-06-01T04:13:11;99056.59;;;7.99;100.0
64025;BME280;50266;57.446;26.936;2023-06-01T04:14:11;99057.23;;;7.96;100.0
64025;BME280;50266;57.446;26.936;2023-06-01T04:15:11;99058.48;;;8.04;100.0
64025;BME280;50266;57.446;26.936;2023-06-01T04:16:11;99057.03;;;8.1;100.0
64025;BME280;50266;57.446;26.936;2023-06-01T04:17:11;99056.08;;;8.13;100.0
64025;BME280;50266;57.446;26.936;2023-06-01T04:18:11;99061.87;;;8.15;100.0
64025;BME280;50266;57.446;26.936;2023-06-01T04:19:11;99056.22;;;8.15;100.0
64025;BME280;50266;57.446;26.936;2023-06-01T04:20:12;99057.52;;;8.19;100.0
64025;BME280;50266;57.446;26.936;2023-06-01T04:21:11;99082.16;;;8.21;100.0
64025;BME280;50266;57.446;26.936;2023-06-01T04:22:11;99082.42;;;8.28;100.0
64025;BME280;50266;57.446;26.936;2023-06-01T04:23:11;99080.59;;;8.32;100.0
64025;BME280;50266;57.446;26.936;2023-06-01T04:24:11;99074.42;;;8.33;100.0
64025;BME280;50266;57.446;26.936;2023-06-01T04:25:12;99069.77;;;8.38;100.0
64025;BME280;50266;57.446;26.936;2023-06-01T04:26:11;99070.57;;;8.35;100.0
64025;BME280;50266;57.446;26.936;2023-06-01T04:27:11;99068.61;;;8.45;100.0
64025;BME280;50266;57.446;26.936;2023-06-01T04:28:11;99073.77;;;8.49;100.0
64025;BME280;50266;57.446;26.936;2023-06-01T04:29:11;99067.97;;;8.49;100.0
64025;BME280;50266;57.446;26.936;2023-06-01T04:30:12;99067.31;;;8.46;100.0
64025;BME280;50266;57.446;26.936;2023-06-01T04:31:14;99064.36;;;8.44;100.0
64025;BME280;50266;57.446;26.936;2023-06-01T04:32:11;99062.09;;;8.4;100.0
64025;BME280;50266;57.446;26.936;2023-06-01T04:33:11;99063.0;;;8.51;100.0
64025;BME280;50266;57.446;26.936;2023-06-01T04:34:11;99068.66;;;8.5;100.0
64025;BME280;50266;57.446;26.936;2023-06-01T04:35:11;99061.43;;;8.61;100.0
64025;BME280;50266;57.446;26.936;2023-06-01T04:36:12;99062.36;;;8.66;100.0
64025;BME280;50266;57.446;26.936;2023-06-01T04:37:11;99062.2;;;8.71;100.0
64025;BME280;50266;57.446;26.936;2023-06-01T04:38:11;99062.58;;;8.65;100.0
64025;BME280;50266;57.446;26.936;2023-06-01T04:39:11;99060.45;;;8.79;100.0
64025;BME280;50266;57.446;26.936;2023-06-01T04:40:11;99066.89;;;8.77;100.0
64025;BME280;50266;57.446;26.936;2023-06-01T04:41:11;99061.99;;;8.84;100.0
64025;BME280;50266;57.446;26.936;2023-06-01T04:42:11;99062.97;;;8.82;100.0
64025;BME280;50266;57.446;26.936;2023-06-01T04:43:11;99065.83;;;8.89;100.0
64025;BME280;50266;57.446;26.936;2023-06-01T04:44:12;99061.78;;;8.83;100.0
64025;BME280;50266;57.446;26.936;2023-06-01T04:45:12;99065.69;;;8.82;100.0
64025;BME280;50266;57.446;26.936;2023-06-01T04:46:12;99055.38;;;8.83;100.0
64025;BME280;50266;57.446;26.936;2023-06-01T04:47:12;99058.73;;;8.93;100.0
64025;BME280;50266;57.446;26.936;2023-06-01T04:48:12;99058.67;;;9.01;100.0
64025;BME280;50266;57.446;26.936;2023-06-01T04:49:12;99063.94;;;9.05;100.0
64025;BME280;50266;57.446;26.936;2023-06-01T04:50:12;99058.23;;;9.11;100.0
64025;BME280;50266;57.446;26.936;2023-06-01T04:51:13;99055.21;;;9.21;100.0
64025;BME280;50266;57.446;26.936;2023-06-01T04:52:12;99057.2;;;9.29;100.0
64025;BME280;50266;57.446;26.936;2023-06-01T04:53:12;99060.53;;;9.28;100.0
64025;BME280;50266;57.446;26.936;2023-06-01T04:54:12;99055.41;;;9.43;100.0
64025;BME280;50266;57.446;26.936;2023-06-01T04:55:12;99052.73;;;9.4;100.0
64025;BME280;50266;57.446;26.936;2023-06-01T04:56:12;99053.12;;;9.38;100.0
64025;BME280;50266;57.446;26.936;2023-06-01T04:57:12;99054.89;;;9.39;100.0
64025;BME280;50266;57.446;26.936;2023-06-01T04:58:12;99060.81;;;9.52;100.0
64025;BME280;50266;57.446;26.936;2023-06-01T04:59:12;99054.0;;;9.37;100.0
64025;BME280;50266;57.446;26.936;2023-06-01T05:00:13;99061.75;;;9.46;100.0
64025;BME280;50266;57.446;26.936;2023-06-01T05:01:13;99052.55;;;9.44;100.0
64025;BME280;50266;57.446;26.936;2023-06-01T05:02:12;99048.14;;;9.48;100.0
64025;BME280;50266;57.446;26.936;2023-06-01T05:03:12;99053.48;;;9.53;100.0
64025;BME280;50266;57.446;26.936;2023-06-01T05:04:12;99051.23;;;9.48;100.0
64025;BME280;50266;57.446;26.936;2023-06-01T05:05:13;99054.5;;;9.73;100.0
64025;BME280;50266;57.446;26.936;2023-06-01T05:06:12;99049.44;;;9.75;100.0
64025;BME280;50266;57.446;26.936;2023-06-01T05:07:12;99051.97;;;9.65;100.0
64025;BME280;50266;57.446;26.936;2023-06-01T05:08:13;99048.61;;;9.64;100.0
64025;BME280;50266;57.446;26.936;2023-06-01T05:09:13;99051.21;;;9.69;100.0
64025;BME280;50266;57.446;26.936;2023-06-01T05:10:12;99048.68;;;9.84;100.0
64025;BME280;50266;57.446;26.936;2023-06-01T05:11:12;99047.55;;;9.87;100.0
64025;BME280;50266;57.446;26.936;2023-06-01T05:12:12;99052.72;;;9.99;100.0
64025;BME280;50266;57.446;26.936;2023-06-01T05:13:12;99051.48;;;9.99;100.0
64025;BME280;50266;57.446;26.936;2023-06-01T05:14:12;99040.94;;;9.85;100.0
64025;BME280;50266;57.446;26.936;2023-06-01T05:15:13;99048.02;;;10.0;100.0
64025;BME280;50266;57.446;26.936;2023-06-01T05:16:13;99045.8;;;9.98;100.0
64025;BME280;50266;57.446;26.936;2023-06-01T05:17:13;99048.05;;;9.97;100.0
64025;BME280;50266;57.446;26.936;2023-06-01T05:18:13;99055.96;;;10.16;100.0
64025;BME280;50266;57.446;26.936;2023-06-01T05:19:13;99052.16;;;10.3;100.0
64025;BME280;50266;57.446;26.936;2023-06-01T05:20:13;99051.61;;;10.36;100.0
64025;BME280;50266;57.446;26.936;2023-06-01T05:21:13;99056.39;;;10.24;100.0
64025;BME280;50266;57.446;26.936;2023-06-01T05:22:13;99050.27;;;10.13;100.0
64025;BME280;50266;57.446;26.936;2023-06-01T05:23:13;99052.94;;;10.18;100.0
64025;BME280;50266;57.446;26.936;2023-06-01T05:24:13;99049.27;;;10.22;100.0
64025;BME280;50266;57.446;26.936;2023-06-01T05:25:13;99052.28;;;10.25;100.0
64025;BME280;50266;57.446;26.936;2023-06-01T05:26:13;99049.55;;;10.36;100.0
64025;BME280;50266;57.446;26.936;2023-06-01T05:27:13;99048.95;;;10.41;100.0
64025;BME280;50266;57.446;26.936;2023-06-01T05:28:13;99046.5;;;10.32;100.0
64025;BME280;50266;57.446;26.936;2023-06-01T05:29:13;99051.45;;;10.33;100.0
64025;BME280;50266;57.446;26.936;2023-06-01T05:30:13;99047.02;;;10.32;100.0